createdAt,value
2022-08-10T00:01:54.545Z,37.10
2022-08-10T00:04:23.337Z,37.15
2022-08-10T00:06:52.477Z,37.69
2022-08-10T00:09:19.162Z,38.15
2022-08-10T00:11:45.757Z,38.17
2022-08-10T00:14:12.326Z,37.87
2022-08-10T00:16:39.097Z,37.58
2022-08-10T00:19:05.662Z,37.92
2022-08-10T00:21:32.268Z,37.16
2022-08-10T00:23:58.844Z,37.56
2022-08-10T00:26:25.434Z,37.25
2022-08-10T00:28:52.708Z,37.59
2022-08-10T00:31:19.573Z,37.80
2022-08-10T00:33:46.172Z,37.49
2022-08-10T00:36:12.793Z,38.09
2022-08-10T00:38:39.453Z,38.50
2022-08-10T00:41:06.179Z,38.42
2022-08-10T00:43:32.739Z,38.61
2022-08-10T00:46:00.479Z,38.87
2022-08-10T00:48:31.331Z,38.54
2022-08-10T00:50:59.424Z,38.75
2022-08-10T00:53:29.242Z,38.25
2022-08-10T00:57:12.542Z,38.15
2022-08-10T00:58:43.172Z,38.22
2022-08-10T01:01:30.656Z,38.60
2022-08-10T01:04:54.659Z,38.65
2022-08-10T01:06:53.765Z,38.62
2022-08-10T01:09:29.053Z,38.92
2022-08-10T01:12:40.048Z,39.07
2022-08-10T01:15:26.895Z,39.13
2022-08-10T01:18:09.441Z,38.88
2022-08-10T01:20:47.387Z,39.13
2022-08-10T01:23:50.268Z,38.99
2022-08-10T01:26:41.977Z,38.59
2022-08-10T01:29:41.846Z,39.14
2022-08-10T01:32:11.609Z,39.10
2022-08-10T01:35:03.279Z,38.63
2022-08-10T01:37:34.337Z,39.27
2022-08-10T01:40:02.375Z,39.15
2022-08-10T01:42:33.682Z,39.65
2022-08-10T01:45:04.301Z,39.39
2022-08-10T01:47:54.547Z,39.33
2022-08-10T01:50:31.179Z,38.75
2022-08-10T01:53:15.586Z,39.01
2022-08-10T01:55:43.373Z,39.47
2022-08-10T01:58:11.772Z,39.40
2022-08-10T02:00:43.267Z,39.57
2022-08-10T02:03:12.310Z,39.45
2022-08-10T02:05:40.902Z,39.49
2022-08-10T02:08:13.015Z,39.18
2022-08-10T02:10:42.608Z,40.06
2022-08-10T02:13:10.700Z,39.86
2022-08-10T02:15:40.599Z,39.71
2022-08-10T02:18:28.522Z,39.09
2022-08-10T02:20:57.258Z,39.67
2022-08-10T02:23:29.991Z,39.36
2022-08-10T02:26:00.268Z,39.42
2022-08-10T02:28:31.254Z,39.26
2022-08-10T02:31:03.139Z,40.33
2022-08-10T02:33:37.076Z,39.76
2022-08-10T02:36:07.650Z,39.72
2022-08-10T02:39:00.711Z,40.04
2022-08-10T02:45:12.733Z,40.11
2022-08-10T02:45:21.691Z,39.85
2022-08-10T02:47:57.477Z,40.33
2022-08-10T02:50:35.068Z,40.20
2022-08-10T02:53:56.651Z,40.37
2022-08-10T02:56:23.299Z,40.43
2022-08-10T02:58:58.953Z,40.45
2022-08-10T03:01:34.437Z,40.62
2022-08-10T03:04:06.451Z,41.13
2022-08-10T03:06:37.763Z,41.32
2022-08-10T03:09:07.409Z,41.54
2022-08-10T03:12:35.007Z,41.46
2022-08-10T03:14:25.314Z,41.64
2022-08-10T03:16:54.391Z,41.71
2022-08-10T03:20:04.688Z,41.70
2022-08-10T03:22:14.188Z,41.53
2022-08-10T03:24:43.478Z,41.29
2022-08-10T03:27:11.044Z,41.38
2022-08-10T03:30:29.384Z,41.48
2022-08-10T03:32:25.566Z,42.08
2022-08-10T03:34:53.904Z,41.81
2022-08-10T03:37:20.694Z,42.23
2022-08-10T03:39:47.430Z,42.17
2022-08-10T03:42:15.168Z,42.44
2022-08-10T03:44:46.226Z,42.63
2022-08-10T03:47:18.866Z,42.22
2022-08-10T03:49:47.617Z,42.61
2022-08-10T03:52:17.063Z,42.41
2022-08-10T03:54:44.317Z,42.72
2022-08-10T03:57:11.522Z,42.39
2022-08-10T03:59:38.625Z,41.93
2022-08-10T04:02:46.985Z,42.36
2022-08-10T04:04:55.081Z,42.71
2022-08-10T04:07:21.686Z,42.70
2022-08-10T04:12:22.853Z,42.12
2022-08-10T04:14:52.414Z,42.60
2022-08-10T04:18:01.359Z,41.63
2022-08-10T04:20:17.933Z,41.61
2022-08-10T04:22:51.672Z,42.69
2022-08-10T04:25:19.837Z,42.89
2022-08-10T04:27:47.266Z,42.19
2022-08-10T04:30:14.399Z,41.99
2022-08-10T04:32:42.150Z,41.65
2022-08-10T04:35:10.894Z,41.75
2022-08-10T04:37:47.207Z,41.52
2022-08-10T04:40:28.815Z,41.57
2022-08-10T04:43:02.143Z,41.15
2022-08-10T04:45:50.566Z,41.61
2022-08-10T04:48:43.249Z,41.33
2022-08-10T04:53:30.997Z,42.20
2022-08-10T04:55:57.915Z,42.36
2022-08-10T04:58:24.692Z,42.01
2022-08-10T05:00:51.437Z,41.43
2022-08-10T05:03:18.222Z,41.45
2022-08-10T05:05:44.866Z,41.42
2022-08-10T05:08:11.471Z,42.25
2022-08-10T05:10:38.145Z,42.05
2022-08-10T05:13:05.020Z,42.34
2022-08-10T05:15:31.708Z,41.89
2022-08-10T05:18:06.845Z,42.03
2022-08-10T05:20:36.562Z,41.58
2022-08-10T05:23:03.172Z,41.71
2022-08-10T05:25:32.744Z,41.72
2022-08-10T05:28:03.124Z,41.69
2022-08-10T05:30:32.794Z,41.64
2022-08-10T05:33:02.647Z,41.75
2022-08-10T05:35:52.891Z,41.69
2022-08-10T05:38:22.311Z,41.24
2022-08-10T05:40:49.759Z,41.30
2022-08-10T05:43:20.614Z,41.93
2022-08-10T05:46:18.183Z,42.09
2022-08-10T05:48:54.049Z,42.20
2022-08-10T05:51:23.442Z,42.45
2022-08-10T05:54:02.618Z,42.42
2022-08-10T05:56:55.378Z,41.94
2022-08-10T06:00:11.345Z,41.61
2022-08-10T06:02:38.113Z,42.34
2022-08-10T06:05:14.703Z,41.95
2022-08-10T06:08:08.463Z,42.41
2022-08-10T06:10:37.296Z,42.05
2022-08-10T06:13:59.713Z,42.89
2022-08-10T06:16:33.040Z,43.39
2022-08-10T06:19:02.139Z,43.44
2022-08-10T06:21:28.896Z,42.69
2022-08-10T06:23:59.063Z,43.16
2022-08-10T06:26:25.727Z,42.86
2022-08-10T06:29:07.035Z,42.60
2022-08-10T06:31:47.636Z,42.11
2022-08-10T06:34:19.136Z,42.93
2022-08-10T06:36:47.069Z,42.85
2022-08-10T06:39:32.268Z,43.03
2022-08-10T06:42:16.783Z,42.53
2022-08-10T06:44:53.429Z,42.84
2022-08-10T06:47:23.963Z,42.81
2022-08-10T06:49:54.273Z,42.45
2022-08-10T06:52:29.745Z,42.44
2022-08-10T06:54:59.378Z,42.34
2022-08-10T06:57:31.411Z,42.10
2022-08-10T07:00:01.057Z,41.85
2022-08-10T07:02:56.656Z,41.93
2022-08-10T07:05:27.097Z,41.89
2022-08-10T07:07:57.655Z,41.50
2022-08-10T07:10:41.187Z,41.55
2022-08-10T07:13:15.828Z,41.84
2022-08-10T07:16:03.219Z,41.10
2022-08-10T07:18:30.917Z,41.48
2022-08-10T07:20:58.697Z,41.38
2022-08-10T07:24:00.222Z,40.88
2022-08-10T07:26:14.042Z,40.64
2022-08-10T07:28:45.014Z,40.33
2022-08-10T07:31:55.005Z,40.37
2022-08-10T07:34:07.157Z,40.16
2022-08-10T07:36:36.430Z,40.17
2022-08-10T07:39:05.176Z,40.30
2022-08-10T07:41:33.895Z,40.20
2022-08-10T07:44:04.260Z,39.48
2022-08-10T07:46:33.622Z,39.20
2022-08-10T07:49:15.278Z,39.34
2022-08-10T07:51:54.855Z,39.04
2022-08-10T07:54:25.165Z,39.23
2022-08-10T07:56:53.643Z,39.43
2022-08-10T07:59:47.926Z,39.19
2022-08-10T08:02:25.892Z,38.96
2022-08-10T08:04:54.424Z,38.19
2022-08-10T08:07:21.801Z,36.82
2022-08-10T08:09:57.106Z,36.21
2022-08-10T08:12:31.438Z,36.29
2022-08-10T08:16:14.556Z,36.26
2022-08-10T08:17:57.425Z,35.68
2022-08-10T08:20:28.728Z,35.20
2022-08-10T08:24:10.890Z,35.41
2022-08-10T08:25:45.963Z,34.82
2022-08-10T08:28:14.340Z,35.27
2022-08-10T08:30:45.721Z,34.62
2022-08-10T08:33:19.923Z,34.58
2022-08-10T08:36:05.790Z,34.44
2022-08-10T08:38:34.886Z,33.90
2022-08-10T08:41:27.864Z,33.76
2022-08-10T08:44:11.602Z,33.49
2022-08-10T08:47:02.531Z,32.99
2022-08-10T08:50:07.635Z,33.09
2022-08-10T08:53:03.537Z,32.65
2022-08-10T08:56:03.842Z,32.43
2022-08-10T08:58:51.892Z,32.42
2022-08-10T09:01:41.613Z,32.58
2022-08-10T09:04:27.744Z,32.27
2022-08-10T09:07:07.168Z,32.15
2022-08-10T09:10:04.510Z,31.69
2022-08-10T09:12:57.399Z,31.57
2022-08-10T09:16:00.972Z,31.27
2022-08-10T09:18:49.909Z,30.27
2022-08-10T09:21:58.655Z,30.47
2022-08-10T09:24:33.617Z,30.24
2022-08-10T09:27:12.369Z,30.02
2022-08-10T09:29:47.437Z,29.99
2022-08-10T09:36:17.144Z,29.60
2022-08-10T09:36:23.686Z,29.61
2022-08-10T09:38:45.256Z,29.89
2022-08-10T09:41:30.541Z,30.18
2022-08-10T09:44:15.059Z,29.88
2022-08-10T09:46:49.370Z,29.10
2022-08-10T09:50:04.219Z,29.30
2022-08-10T09:53:07.643Z,28.62
2022-08-10T09:56:18.015Z,28.80
2022-08-10T09:58:51.785Z,28.58
2022-08-10T10:02:03.956Z,28.44
2022-08-10T10:04:40.818Z,28.28
2022-08-10T10:07:14.115Z,27.68
2022-08-10T10:10:08.928Z,27.55
2022-08-10T10:12:50.661Z,27.14
2022-08-10T10:15:48.318Z,27.27
2022-08-10T10:18:22.137Z,27.09
2022-08-10T10:21:23.972Z,26.86
2022-08-10T10:24:21.395Z,27.06
2022-08-10T10:26:57.506Z,27.17
2022-08-10T10:29:56.748Z,26.80
2022-08-10T10:32:41.395Z,26.83
2022-08-10T10:35:48.511Z,26.66
2022-08-10T10:38:17.384Z,26.56
2022-08-10T10:41:13.938Z,26.78
2022-08-10T10:44:00.708Z,26.31
2022-08-10T10:46:44.612Z,25.80
2022-08-10T10:49:54.434Z,26.15
2022-08-10T10:52:40.261Z,25.90
2022-08-10T10:55:19.018Z,26.03
2022-08-10T10:58:00.953Z,26.64
2022-08-10T11:00:46.161Z,26.79
2022-08-10T11:03:36.210Z,26.27
2022-08-10T11:06:45.529Z,25.99
2022-08-10T11:10:03.258Z,26.06
2022-08-10T11:12:27.531Z,25.91
2022-08-10T11:15:06.748Z,26.04
2022-08-10T11:17:38.287Z,25.76
2022-08-10T11:20:10.901Z,25.91
2022-08-10T11:23:01.130Z,25.45
2022-08-10T11:25:30.882Z,25.40
2022-08-10T11:28:36.764Z,25.19
2022-08-10T11:31:27.678Z,25.37
2022-08-10T11:34:48.127Z,25.58
2022-08-10T11:37:05.520Z,24.75
2022-08-10T11:39:49.458Z,25.02
2022-08-10T11:42:36.219Z,25.24
2022-08-10T11:45:27.752Z,24.87
2022-08-10T11:48:02.400Z,25.19
2022-08-10T11:50:35.076Z,24.88
2022-08-10T11:53:07.702Z,24.67
2022-08-10T11:55:34.916Z,24.62
2022-08-10T11:58:27.731Z,24.65
2022-08-10T12:00:57.281Z,25.29
2022-08-10T12:03:25.517Z,24.53
2022-08-10T12:05:55.415Z,24.16
2022-08-10T12:10:05.466Z,23.90
2022-08-10T12:11:22.469Z,24.20
2022-08-10T12:14:22.285Z,24.64
2022-08-10T12:16:58.797Z,24.29
2022-08-10T12:19:59.412Z,24.33
2022-08-10T12:22:48.792Z,24.39
2022-08-10T12:25:56.463Z,24.66
2022-08-10T12:28:50.527Z,24.48
2022-08-10T12:31:23.873Z,25.03
2022-08-10T12:34:03.343Z,25.04
2022-08-10T12:36:39.939Z,25.26
2022-08-10T12:39:13.662Z,25.17
2022-08-10T12:41:49.719Z,25.10
2022-08-10T12:44:40.974Z,24.89
2022-08-10T12:47:22.084Z,24.65
2022-08-10T12:50:31.148Z,24.28
2022-08-10T12:53:17.473Z,24.27
2022-08-10T12:55:45.580Z,24.15
2022-08-10T12:58:58.311Z,24.51
2022-08-10T13:01:15.999Z,24.86
2022-08-10T13:04:21.674Z,24.67
2022-08-10T13:06:36.489Z,24.06
2022-08-10T13:09:09.090Z,24.35
2022-08-10T13:12:36.105Z,23.79
2022-08-10T13:14:46.248Z,23.53
2022-08-10T13:17:23.797Z,24.15
2022-08-10T13:19:56.352Z,24.36
2022-08-10T13:22:28.374Z,24.20
2022-08-10T13:25:01.230Z,23.81
2022-08-10T13:28:00.840Z,24.23
2022-08-10T13:30:37.811Z,24.53
2022-08-10T13:33:07.029Z,25.03
2022-08-10T13:35:35.301Z,24.97
2022-08-10T13:38:03.521Z,24.97
2022-08-10T13:40:32.524Z,25.11
2022-08-10T13:43:02.462Z,24.82
2022-08-10T13:45:30.342Z,24.63
2022-08-10T13:48:20.165Z,25.12
2022-08-10T13:50:49.075Z,25.34
2022-08-10T13:53:17.746Z,25.15
2022-08-10T13:55:56.384Z,24.94
2022-08-10T13:58:28.806Z,24.98
2022-08-10T14:00:57.092Z,24.61
2022-08-10T14:03:25.711Z,24.35
2022-08-10T14:05:54.441Z,23.77
2022-08-10T14:08:29.145Z,23.71
2022-08-10T14:11:08.595Z,23.26
2022-08-10T14:13:44.324Z,23.66
2022-08-10T14:16:11.968Z,23.94
2022-08-10T14:18:39.827Z,24.49
2022-08-10T14:21:07.255Z,24.23
2022-08-10T14:23:40.477Z,23.95
2022-08-10T14:26:09.452Z,24.37
2022-08-10T14:28:41.672Z,24.70
2022-08-10T14:31:12.999Z,24.65
2022-08-10T14:33:44.621Z,24.94
2022-08-10T14:36:22.310Z,24.30
2022-08-10T14:38:53.901Z,24.14
2022-08-10T14:42:01.949Z,23.89
2022-08-10T14:44:20.297Z,24.40
2022-08-10T14:46:51.961Z,23.94
2022-08-10T14:49:25.923Z,24.23
2022-08-10T14:52:00.674Z,23.90
2022-08-10T14:54:29.843Z,24.23
2022-08-10T14:57:11.097Z,23.85
2022-08-10T15:00:25.050Z,23.85
2022-08-10T15:02:38.530Z,23.44
2022-08-10T15:05:09.814Z,23.80
2022-08-10T15:07:38.185Z,23.28
2022-08-10T15:10:10.902Z,23.42
2022-08-10T15:12:39.734Z,23.22
2022-08-10T15:15:17.921Z,23.13
2022-08-10T15:17:57.824Z,22.91
2022-08-10T15:20:27.464Z,23.05
2022-08-10T15:23:00.055Z,22.82
2022-08-10T15:25:28.891Z,23.05
2022-08-10T15:28:06.238Z,23.26
2022-08-10T15:30:40.449Z,23.27
2022-08-10T15:34:02.983Z,22.81
2022-08-10T15:36:38.455Z,21.77
2022-08-10T15:39:16.569Z,22.41
2022-08-10T15:42:02.865Z,21.89
2022-08-10T15:44:39.898Z,21.40
2022-08-10T15:47:20.074Z,22.17
2022-08-10T15:50:02.932Z,22.67
2022-08-10T15:53:00.732Z,22.90
2022-08-10T15:55:43.487Z,22.53
2022-08-10T15:58:39.396Z,21.92
2022-08-10T16:02:03.805Z,22.40
2022-08-10T16:04:21.380Z,22.91
2022-08-10T16:07:10.588Z,23.38
2022-08-10T16:10:22.307Z,22.91
2022-08-10T16:12:41.973Z,22.98
2022-08-10T16:15:15.350Z,23.75
2022-08-10T16:17:59.982Z,23.15
2022-08-10T16:20:33.451Z,23.16
2022-08-10T16:23:23.515Z,23.13
2022-08-10T16:25:58.340Z,22.87
2022-08-10T16:28:35.419Z,22.56
2022-08-10T16:31:06.368Z,23.13
2022-08-10T16:33:53.779Z,22.74
2022-08-10T16:36:28.661Z,23.17
2022-08-10T16:38:57.497Z,23.66
2022-08-10T16:42:03.385Z,23.67
2022-08-10T16:44:17.482Z,23.46
2022-08-10T16:46:45.318Z,23.68
2022-08-10T16:49:18.529Z,23.45
2022-08-10T16:51:50.227Z,23.44
2022-08-10T16:54:26.826Z,23.19
2022-08-10T16:57:00.900Z,23.12
2022-08-10T16:59:32.108Z,22.73
2022-08-10T17:02:00.847Z,22.62
2022-08-10T17:04:29.155Z,23.04
2022-08-10T17:06:58.277Z,23.27
2022-08-10T17:09:28.737Z,23.07
2022-08-10T17:11:58.260Z,23.47
2022-08-10T17:14:29.304Z,23.35
2022-08-10T17:17:31.136Z,23.52
2022-08-10T17:20:30.653Z,23.57
2022-08-10T17:22:54.721Z,23.37
2022-08-10T17:25:48.551Z,23.39
2022-08-10T17:28:33.127Z,23.49
2022-08-10T17:31:23.555Z,23.14
2022-08-10T17:33:57.725Z,23.64
2022-08-10T17:36:29.681Z,23.75
2022-08-10T17:38:57.579Z,23.68
2022-08-10T17:41:29.025Z,23.75
2022-08-10T17:44:02.481Z,23.96
2022-08-10T17:46:35.812Z,23.73
2022-08-10T17:49:09.825Z,23.84
2022-08-10T17:51:41.037Z,23.76
2022-08-10T17:54:20.011Z,23.91
2022-08-10T17:56:48.739Z,24.12
2022-08-10T17:59:17.452Z,24.03
2022-08-10T18:01:58.697Z,24.33
2022-08-10T18:04:34.141Z,24.34
2022-08-10T18:07:05.694Z,24.20
2022-08-10T18:09:43.297Z,24.62
2022-08-10T18:12:17.924Z,24.76
2022-08-10T18:14:49.994Z,24.76
2022-08-10T18:17:25.541Z,24.78
2022-08-10T18:19:56.900Z,24.82
2022-08-10T18:22:24.809Z,25.05
2022-08-10T18:24:54.061Z,25.12
2022-08-10T18:27:22.656Z,24.85
2022-08-10T18:30:09.946Z,24.99
2022-08-10T18:32:41.448Z,25.42
2022-08-10T18:35:09.311Z,25.15
2022-08-10T18:37:37.345Z,25.39
2022-08-10T18:40:06.524Z,25.42
2022-08-10T18:42:35.829Z,25.08
2022-08-10T18:45:12.289Z,25.37
2022-08-10T18:47:58.979Z,25.21
2022-08-10T18:50:33.854Z,25.24
2022-08-10T18:53:04.460Z,25.42
2022-08-10T18:56:08.610Z,25.87
2022-08-10T18:58:50.233Z,26.26
2022-08-10T19:01:48.516Z,25.96
2022-08-10T19:04:43.354Z,26.24
2022-08-10T19:07:31.786Z,26.18
2022-08-10T19:10:33.945Z,26.79
2022-08-10T19:13:19.256Z,27.11
2022-08-10T19:16:02.015Z,27.64
2022-08-10T19:18:35.169Z,28.29
2022-08-10T19:21:06.099Z,29.27
2022-08-10T19:23:46.492Z,29.58
2022-08-10T19:26:43.780Z,29.65
2022-08-10T19:30:10.269Z,29.18
2022-08-10T19:32:51.720Z,29.91
2022-08-10T19:36:04.394Z,29.74
2022-08-10T19:38:50.315Z,30.10
2022-08-10T19:41:44.858Z,29.82
2022-08-10T19:44:30.476Z,30.67
2022-08-10T19:47:06.086Z,29.87
2022-08-10T19:49:44.325Z,30.54
2022-08-10T19:52:16.768Z,30.48
2022-08-10T19:55:01.023Z,29.82
2022-08-10T19:57:36.178Z,30.06
2022-08-10T20:00:19.309Z,29.61
2022-08-10T20:03:11.896Z,30.27
2022-08-10T20:06:18.311Z,30.17
2022-08-10T20:08:52.607Z,30.10
2022-08-10T20:11:45.173Z,29.67
2022-08-10T20:14:29.475Z,29.75
2022-08-10T20:17:02.414Z,30.18
2022-08-10T20:19:54.218Z,30.01
2022-08-10T20:22:35.306Z,29.56
2022-08-10T20:25:14.231Z,29.26
2022-08-10T20:28:00.649Z,30.14
2022-08-10T20:30:34.485Z,30.16
2022-08-10T20:33:27.346Z,30.41
2022-08-10T20:36:26.463Z,30.50
2022-08-10T20:39:20.968Z,30.47
2022-08-10T20:42:06.550Z,30.34
2022-08-10T20:44:57.631Z,30.65
2022-08-10T20:47:33.951Z,30.60
2022-08-10T20:50:31.027Z,30.04
2022-08-10T20:53:03.677Z,30.79
2022-08-10T20:55:52.583Z,30.60
2022-08-10T20:58:50.406Z,31.15
2022-08-10T21:01:24.936Z,30.22
2022-08-10T21:04:40.670Z,31.39
2022-08-10T21:07:22.177Z,30.68
2022-08-10T21:10:26.530Z,31.04
2022-08-10T21:13:13.032Z,31.17
2022-08-10T21:16:06.861Z,31.45
2022-08-10T21:18:51.720Z,30.68
2022-08-10T21:21:56.949Z,31.04
2022-08-10T21:24:30.960Z,30.93
2022-08-10T21:27:18.082Z,31.34
2022-08-10T21:30:10.148Z,31.21
2022-08-10T21:32:59.312Z,31.27
2022-08-10T21:35:38.379Z,31.15
2022-08-10T21:38:29.254Z,31.21
2022-08-10T21:41:58.218Z,31.34
2022-08-10T21:45:09.018Z,31.93
2022-08-10T21:48:07.391Z,31.05
2022-08-10T21:54:35.603Z,31.50
2022-08-10T21:58:06.049Z,31.61
2022-08-10T22:00:55.998Z,32.01
2022-08-10T22:03:42.344Z,31.67
2022-08-10T22:06:31.001Z,31.90
2022-08-10T22:09:24.258Z,32.11
2022-08-10T22:12:25.084Z,32.32
2022-08-10T22:16:03.461Z,32.44
2022-08-10T22:18:35.942Z,32.52
2022-08-10T22:21:56.432Z,32.52
2022-08-10T22:25:16.789Z,32.74
2022-08-10T22:28:03.192Z,33.10
2022-08-10T22:31:22.700Z,32.72
2022-08-10T22:31:28.510Z,31.84
2022-08-10T22:34:33.206Z,32.92
2022-08-10T22:37:43.594Z,33.08
2022-08-10T22:40:31.371Z,32.96
2022-08-10T22:43:35.523Z,32.80
2022-08-10T22:46:32.866Z,33.17
2022-08-10T22:48:59.617Z,32.96
2022-08-10T22:51:49.263Z,33.35
2022-08-10T22:54:51.354Z,32.87
2022-08-10T22:57:37.589Z,33.51
2022-08-10T23:00:16.394Z,33.65
2022-08-10T23:02:56.172Z,34.25
2022-08-10T23:05:34.428Z,33.71
2022-08-10T23:08:19.551Z,33.93
2022-08-10T23:11:07.308Z,33.68
2022-08-10T23:13:42.251Z,33.43
2022-08-10T23:16:35.854Z,33.52
2022-08-10T23:19:10.987Z,33.62
2022-08-10T23:22:05.118Z,33.87
2022-08-10T23:24:38.198Z,33.76
2022-08-10T23:27:12.560Z,33.62
2022-08-10T23:30:10.100Z,33.75
2022-08-10T23:32:40.714Z,34.24
2022-08-10T23:36:05.614Z,33.92
2022-08-10T23:38:01.743Z,33.90
2022-08-10T23:40:28.908Z,34.29
2022-08-10T23:42:57.573Z,33.96
2022-08-10T23:45:27.655Z,33.81
2022-08-10T23:48:00.098Z,34.50
2022-08-10T23:50:28.531Z,34.24
2022-08-10T23:52:59.811Z,34.13
2022-08-10T23:55:30.820Z,34.52
2022-08-10T23:58:33.582Z,34.33
